sensor_id;sensor_type;location;lat;lon;timestamp;P1;durP1;ratioP1;P2;durP2;ratioP2
11313;SDS011;5712;48.858;9.206;2022-12-18T00:00:38;53.40;;;26.67;;
11313;SDS011;5712;48.858;9.206;2022-12-18T00:03:05;59.53;;;28.30;;
11313;SDS011;5712;48.858;9.206;2022-12-18T00:05:32;61.60;;;28.07;;
11313;SDS011;5712;48.858;9.206;2022-12-18T00:07:58;55.13;;;26.77;;
11313;SDS011;5712;48.858;9.206;2022-12-18T00:10:25;58.50;;;29.00;;
11313;SDS011;5712;48.858;9.206;2022-12-18T00:12:53;60.33;;;26.17;;
11313;SDS011;5712;48.858;9.206;2022-12-18T00:15:21;55.53;;;25.77;;
11313;SDS011;5712;48.858;9.206;2022-12-18T00:17:48;50.70;;;24.47;;
11313;SDS011;5712;48.858;9.206;2022-12-18T00:20:14;56.03;;;24.23;;
11313;SDS011;5712;48.858;9.206;2022-12-18T00:22:45;53.27;;;25.27;;
11313;SDS011;5712;48.858;9.206;2022-12-18T00:25:12;64.97;;;27.47;;
11313;SDS011;5712;48.858;9.206;2022-12-18T00:27:38;58.90;;;27.60;;
11313;SDS011;5712;48.858;9.206;2022-12-18T00:30:05;60.07;;;27.20;;
11313;SDS011;5712;48.858;9.206;2022-12-18T00:32:34;66.07;;;28.67;;
11313;SDS011;5712;48.858;9.206;2022-12-18T00:35:00;64.87;;;27.80;;
11313;SDS011;5712;48.858;9.206;2022-12-18T00:37:26;60.23;;;28.53;;
11313;SDS011;5712;48.858;9.206;2022-12-18T00:39:53;65.47;;;29.03;;
11313;SDS011;5712;48.858;9.206;2022-12-18T00:42:19;60.13;;;28.57;;
11313;SDS011;5712;48.858;9.206;2022-12-18T00:45:04;67.07;;;28.03;;
11313;SDS011;5712;48.858;9.206;2022-12-18T00:47:31;55.07;;;26.20;;
11313;SDS011;5712;48.858;9.206;2022-12-18T00:49:59;55.60;;;27.73;;
11313;SDS011;5712;48.858;9.206;2022-12-18T00:52:25;60.10;;;28.23;;
11313;SDS011;5712;48.858;9.206;2022-12-18T00:54:52;67.07;;;30.23;;
11313;SDS011;5712;48.858;9.206;2022-12-18T00:57:18;59.47;;;27.67;;
11313;SDS011;5712;48.858;9.206;2022-12-18T00:59:45;63.13;;;27.73;;
11313;SDS011;5712;48.858;9.206;2022-12-18T01:02:11;60.90;;;27.33;;
11313;SDS011;5712;48.858;9.206;2022-12-18T01:04:38;55.57;;;24.87;;
11313;SDS011;5712;48.858;9.206;2022-12-18T01:07:05;58.40;;;25.93;;
11313;SDS011;5712;48.858;9.206;2022-12-18T01:09:32;54.77;;;25.77;;
11313;SDS011;5712;48.858;9.206;2022-12-18T01:11:59;64.23;;;26.60;;
11313;SDS011;5712;48.858;9.206;2022-12-18T01:14:25;63.73;;;27.40;;
11313;SDS011;5712;48.858;9.206;2022-12-18T01:16:52;56.83;;;27.73;;
11313;SDS011;5712;48.858;9.206;2022-12-18T01:19:18;61.70;;;28.13;;
11313;SDS011;5712;48.858;9.206;2022-12-18T01:21:45;57.50;;;27.07;;
11313;SDS011;5712;48.858;9.206;2022-12-18T01:24:13;60.73;;;26.10;;
11313;SDS011;5712;48.858;9.206;2022-12-18T01:26:39;49.23;;;24.70;;
11313;SDS011;5712;48.858;9.206;2022-12-18T01:29:06;62.30;;;26.30;;
11313;SDS011;5712;48.858;9.206;2022-12-18T01:31:33;59.30;;;27.73;;
11313;SDS011;5712;48.858;9.206;2022-12-18T01:34:00;65.60;;;27.27;;
11313;SDS011;5712;48.858;9.206;2022-12-18T01:36:28;68.13;;;27.57;;
11313;SDS011;5712;48.858;9.206;2022-12-18T01:38:56;63.93;;;28.67;;
11313;SDS011;5712;48.858;9.206;2022-12-18T01:41:27;58.80;;;25.03;;
11313;SDS011;5712;48.858;9.206;2022-12-18T01:47:20;62.43;;;24.10;;
11313;SDS011;5712;48.858;9.206;2022-12-18T01:49:49;52.60;;;24.57;;
11313;SDS011;5712;48.858;9.206;2022-12-18T01:52:15;57.67;;;26.67;;
11313;SDS011;5712;48.858;9.206;2022-12-18T01:54:44;55.20;;;26.70;;
11313;SDS011;5712;48.858;9.206;2022-12-18T01:57:13;59.73;;;27.03;;
11313;SDS011;5712;48.858;9.206;2022-12-18T01:59:40;61.97;;;25.73;;
11313;SDS011;5712;48.858;9.206;2022-12-18T02:02:11;64.40;;;26.17;;
11313;SDS011;5712;48.858;9.206;2022-12-18T02:04:41;56.93;;;24.57;;
11313;SDS011;5712;48.858;9.206;2022-12-18T02:07:10;53.70;;;24.27;;
11313;SDS011;5712;48.858;9.206;2022-12-18T02:09:44;57.47;;;24.63;;
11313;SDS011;5712;48.858;9.206;2022-12-18T02:12:16;58.03;;;26.70;;
11313;SDS011;5712;48.858;9.206;2022-12-18T02:14:46;54.50;;;24.70;;
11313;SDS011;5712;48.858;9.206;2022-12-18T02:17:22;60.73;;;25.27;;
11313;SDS011;5712;48.858;9.206;2022-12-18T02:19:57;57.90;;;26.53;;
11313;SDS011;5712;48.858;9.206;2022-12-18T02:22:34;52.70;;;24.57;;
11313;SDS011;5712;48.858;9.206;2022-12-18T02:25:12;57.23;;;23.47;;
11313;SDS011;5712;48.858;9.206;2022-12-18T02:27:49;56.10;;;24.03;;
11313;SDS011;5712;48.858;9.206;2022-12-18T02:30:18;51.97;;;23.00;;
11313;SDS011;5712;48.858;9.206;2022-12-18T02:32:46;57.77;;;24.30;;
11313;SDS011;5712;48.858;9.206;2022-12-18T02:35:18;47.63;;;22.90;;
11313;SDS011;5712;48.858;9.206;2022-12-18T02:37:49;57.87;;;23.90;;
11313;SDS011;5712;48.858;9.206;2022-12-18T02:40:23;49.63;;;23.20;;
11313;SDS011;5712;48.858;9.206;2022-12-18T02:42:53;52.53;;;22.77;;
11313;SDS011;5712;48.858;9.206;2022-12-18T02:45:20;56.37;;;23.33;;
11313;SDS011;5712;48.858;9.206;2022-12-18T02:47:47;56.17;;;23.13;;
11313;SDS011;5712;48.858;9.206;2022-12-18T02:50:17;52.53;;;23.60;;
11313;SDS011;5712;48.858;9.206;2022-12-18T02:52:51;50.90;;;22.67;;
11313;SDS011;5712;48.858;9.206;2022-12-18T02:55:28;58.93;;;23.37;;
11313;SDS011;5712;48.858;9.206;2022-12-18T02:58:08;48.87;;;21.63;;
11313;SDS011;5712;48.858;9.206;2022-12-18T03:00:41;53.87;;;24.37;;
11313;SDS011;5712;48.858;9.206;2022-12-18T03:03:15;56.93;;;24.07;;
11313;SDS011;5712;48.858;9.206;2022-12-18T03:05:51;52.80;;;24.23;;
11313;SDS011;5712;48.858;9.206;2022-12-18T03:08:20;49.13;;;21.53;;
11313;SDS011;5712;48.858;9.206;2022-12-18T03:10:51;50.50;;;23.87;;
11313;SDS011;5712;48.858;9.206;2022-12-18T03:13:23;54.07;;;23.97;;
11313;SDS011;5712;48.858;9.206;2022-12-18T03:15:54;52.00;;;22.07;;
11313;SDS011;5712;48.858;9.206;2022-12-18T03:18:25;43.37;;;21.80;;
11313;SDS011;5712;48.858;9.206;2022-12-18T03:20:56;51.60;;;22.83;;
11313;SDS011;5712;48.858;9.206;2022-12-18T03:23:27;46.97;;;21.63;;
11313;SDS011;5712;48.858;9.206;2022-12-18T03:25:59;51.37;;;22.80;;
11313;SDS011;5712;48.858;9.206;2022-12-18T03:28:31;45.03;;;21.60;;
11313;SDS011;5712;48.858;9.206;2022-12-18T03:31:01;46.43;;;22.07;;
11313;SDS011;5712;48.858;9.206;2022-12-18T03:33:31;45.57;;;21.40;;
11313;SDS011;5712;48.858;9.206;2022-12-18T03:36:03;45.60;;;20.63;;
11313;SDS011;5712;48.858;9.206;2022-12-18T03:38:30;45.73;;;20.50;;
11313;SDS011;5712;48.858;9.206;2022-12-18T03:40:58;44.93;;;21.37;;
11313;SDS011;5712;48.858;9.206;2022-12-18T03:43:30;51.33;;;21.67;;
11313;SDS011;5712;48.858;9.206;2022-12-18T03:46:08;46.00;;;22.77;;
11313;SDS011;5712;48.858;9.206;2022-12-18T03:48:41;43.90;;;21.17;;
11313;SDS011;5712;48.858;9.206;2022-12-18T03:51:20;41.63;;;19.93;;
11313;SDS011;5712;48.858;9.206;2022-12-18T03:53:51;47.03;;;19.97;;
11313;SDS011;5712;48.858;9.206;2022-12-18T03:56:22;43.00;;;19.93;;
11313;SDS011;5712;48.858;9.206;2022-12-18T03:58:54;41.90;;;21.93;;
11313;SDS011;5712;48.858;9.206;2022-12-18T04:01:24;44.53;;;20.87;;
11313;SDS011;5712;48.858;9.206;2022-12-18T04:03:56;47.77;;;21.23;;
11313;SDS011;5712;48.858;9.206;2022-12-18T04:06:25;36.53;;;18.87;;
11313;SDS011;5712;48.858;9.206;2022-12-18T04:08:53;40.93;;;19.03;;
11313;SDS011;5712;48.858;9.206;2022-12-18T04:11:19;43.40;;;20.53;;
11313;SDS011;5712;48.858;9.206;2022-12-18T04:13:46;45.03;;;20.57;;
11313;SDS011;5712;48.858;9.206;2022-12-18T04:16:14;41.17;;;19.60;;
11313;SDS011;5712;48.858;9.206;2022-12-18T04:18:40;45.10;;;19.90;;
11313;SDS011;5712;48.858;9.206;2022-12-18T04:21:07;38.57;;;18.63;;
11313;SDS011;5712;48.858;9.206;2022-12-18T04:23:33;48.33;;;20.40;;
11313;SDS011;5712;48.858;9.206;2022-12-18T04:26:00;39.13;;;19.63;;
11313;SDS011;5712;48.858;9.206;2022-12-18T04:28:27;39.90;;;18.87;;
11313;SDS011;5712;48.858;9.206;2022-12-18T04:30:53;38.43;;;19.47;;
11313;SDS011;5712;48.858;9.206;2022-12-18T04:33:21;40.80;;;19.43;;
11313;SDS011;5712;48.858;9.206;2022-12-18T04:35:48;47.00;;;20.10;;
11313;SDS011;5712;48.858;9.206;2022-12-18T04:38:14;39.60;;;20.10;;
11313;SDS011;5712;48.858;9.206;2022-12-18T04:40:41;41.60;;;18.93;;
11313;SDS011;5712;48.858;9.206;2022-12-18T04:43:07;44.70;;;20.67;;
11313;SDS011;5712;48.858;9.206;2022-12-18T04:45:34;38.47;;;19.50;;
11313;SDS011;5712;48.858;9.206;2022-12-18T04:48:01;40.27;;;19.47;;
11313;SDS011;5712;48.858;9.206;2022-12-18T04:50:30;45.53;;;21.07;;
11313;SDS011;5712;48.858;9.206;2022-12-18T04:52:56;49.03;;;21.30;;
11313;SDS011;5712;48.858;9.206;2022-12-18T04:55:23;40.13;;;19.93;;
11313;SDS011;5712;48.858;9.206;2022-12-18T04:57:50;43.60;;;19.40;;
11313;SDS011;5712;48.858;9.206;2022-12-18T05:00:16;43.00;;;20.30;;
11313;SDS011;5712;48.858;9.206;2022-12-18T05:02:43;46.83;;;19.70;;
11313;SDS011;5712;48.858;9.206;2022-12-18T05:05:10;46.93;;;20.07;;
11313;SDS011;5712;48.858;9.206;2022-12-18T05:07:38;40.80;;;20.50;;
11313;SDS011;5712;48.858;9.206;2022-12-18T05:10:07;41.03;;;20.27;;
11313;SDS011;5712;48.858;9.206;2022-12-18T05:12:34;39.23;;;19.70;;
11313;SDS011;5712;48.858;9.206;2022-12-18T05:15:22;44.20;;;19.10;;
11313;SDS011;5712;48.858;9.206;2022-12-18T05:17:48;39.87;;;18.50;;
11313;SDS011;5712;48.858;9.206;2022-12-18T05:20:15;42.57;;;21.70;;
11313;SDS011;5712;48.858;9.206;2022-12-18T05:22:42;39.47;;;19.07;;
11313;SDS011;5712;48.858;9.206;2022-12-18T05:25:09;41.20;;;18.30;;
11313;SDS011;5712;48.858;9.206;2022-12-18T05:27:35;36.53;;;18.60;;
11313;SDS011;5712;48.858;9.206;2022-12-18T05:30:02;40.40;;;19.77;;
11313;SDS011;5712;48.858;9.206;2022-12-18T05:32:29;46.83;;;19.67;;
11313;SDS011;5712;48.858;9.206;2022-12-18T05:34:56;47.20;;;21.13;;
11313;SDS011;5712;48.858;9.206;2022-12-18T05:37:22;43.20;;;19.07;;
11313;SDS011;5712;48.858;9.206;2022-12-18T05:39:50;44.70;;;19.97;;
11313;SDS011;5712;48.858;9.206;2022-12-18T05:42:17;38.10;;;18.97;;
11313;SDS011;5712;48.858;9.206;2022-12-18T05:44:43;38.07;;;18.27;;
11313;SDS011;5712;48.858;9.206;2022-12-18T05:47:10;33.03;;;17.00;;
11313;SDS011;5712;48.858;9.206;2022-12-18T05:49:36;33.60;;;18.20;;
11313;SDS011;5712;48.858;9.206;2022-12-18T05:52:03;42.37;;;19.83;;
11313;SDS011;5712;48.858;9.206;2022-12-18T05:54:29;47.30;;;20.10;;
11313;SDS011;5712;48.858;9.206;2022-12-18T05:56:57;43.00;;;19.27;;
11313;SDS011;5712;48.858;9.206;2022-12-18T05:59:24;41.57;;;17.77;;
11313;SDS011;5712;48.858;9.206;2022-12-18T06:01:50;42.20;;;18.50;;
11313;SDS011;5712;48.858;9.206;2022-12-18T06:04:17;38.57;;;17.23;;
11313;SDS011;5712;48.858;9.206;2022-12-18T06:06:43;41.93;;;19.37;;
11313;SDS011;5712;48.858;9.206;2022-12-18T06:09:10;39.93;;;19.50;;
11313;SDS011;5712;48.858;9.206;2022-12-18T06:11:36;41.57;;;19.20;;
11313;SDS011;5712;48.858;9.206;2022-12-18T06:14:05;34.43;;;17.43;;
11313;SDS011;5712;48.858;9.206;2022-12-18T06:16:32;42.13;;;18.50;;
11313;SDS011;5712;48.858;9.206;2022-12-18T06:18:59;45.43;;;20.53;;
11313;SDS011;5712;48.858;9.206;2022-12-18T06:21:26;47.87;;;20.10;;
11313;SDS011;5712;48.858;9.206;2022-12-18T06:23:53;39.77;;;19.67;;
11313;SDS011;5712;48.858;9.206;2022-12-18T06:26:20;44.07;;;19.97;;
11313;SDS011;5712;48.858;9.206;2022-12-18T06:28:46;37.90;;;17.73;;
11313;SDS011;5712;48.858;9.206;2022-12-18T06:31:15;40.37;;;18.77;;
11313;SDS011;5712;48.858;9.206;2022-12-18T06:33:41;37.70;;;18.20;;
11313;SDS011;5712;48.858;9.206;2022-12-18T06:36:09;37.77;;;17.80;;
11313;SDS011;5712;48.858;9.206;2022-12-18T06:38:37;41.93;;;17.40;;
11313;SDS011;5712;48.858;9.206;2022-12-18T06:41:06;41.83;;;19.23;;
11313;SDS011;5712;48.858;9.206;2022-12-18T06:43:33;34.77;;;17.30;;
11313;SDS011;5712;48.858;9.206;2022-12-18T06:45:59;37.33;;;17.60;;
11313;SDS011;5712;48.858;9.206;2022-12-18T06:48:28;39.57;;;18.57;;
11313;SDS011;5712;48.858;9.206;2022-12-18T06:50:55;33.77;;;17.40;;
11313;SDS011;5712;48.858;9.206;2022-12-18T06:53:21;38.07;;;16.90;;
11313;SDS011;5712;48.858;9.206;2022-12-18T06:55:48;41.10;;;17.17;;
11313;SDS011;5712;48.858;9.206;2022-12-18T06:58:15;36.80;;;17.57;;
11313;SDS011;5712;48.858;9.206;2022-12-18T07:00:41;42.03;;;19.47;;
11313;SDS011;5712;48.858;9.206;2022-12-18T07:03:08;43.23;;;18.47;;
11313;SDS011;5712;48.858;9.206;2022-12-18T07:05:40;34.57;;;15.67;;
11313;SDS011;5712;48.858;9.206;2022-12-18T07:08:07;40.10;;;18.97;;
11313;SDS011;5712;48.858;9.206;2022-12-18T07:10:33;34.80;;;17.93;;
11313;SDS011;5712;48.858;9.206;2022-12-18T07:13:00;37.53;;;18.50;;
11313;SDS011;5712;48.858;9.206;2022-12-18T07:15:26;40.50;;;18.17;;
11313;SDS011;5712;48.858;9.206;2022-12-18T07:17:53;39.77;;;17.47;;
11313;SDS011;5712;48.858;9.206;2022-12-18T07:20:19;42.93;;;18.63;;
11313;SDS011;5712;48.858;9.206;2022-12-18T07:22:47;39.20;;;18.53;;
11313;SDS011;5712;48.858;9.206;2022-12-18T07:25:14;35.17;;;17.13;;
11313;SDS011;5712;48.858;9.206;2022-12-18T07:27:40;40.27;;;17.10;;
11313;SDS011;5712;48.858;9.206;2022-12-18T07:30:07;40.50;;;17.77;;
11313;SDS011;5712;48.858;9.206;2022-12-18T07:32:35;36.80;;;17.90;;
11313;SDS011;5712;48.858;9.206;2022-12-18T07:35:02;34.90;;;17.30;;
11313;SDS011;5712;48.858;9.206;2022-12-18T07:37:28;39.30;;;18.10;;
11313;SDS011;5712;48.858;9.206;2022-12-18T07:39:56;38.40;;;18.57;;
11313;SDS011;5712;48.858;9.206;2022-12-18T07:42:23;34.17;;;17.53;;
11313;SDS011;5712;48.858;9.206;2022-12-18T07:44:59;37.13;;;17.70;;
11313;SDS011;5712;48.858;9.206;2022-12-18T07:47:27;38.23;;;18.67;;
11313;SDS011;5712;48.858;9.206;2022-12-18T07:50:01;34.43;;;17.27;;
11313;SDS011;5712;48.858;9.206;2022-12-18T07:52:27;34.70;;;17.97;;
11313;SDS011;5712;48.858;9.206;2022-12-18T07:54:54;36.47;;;17.30;;
11313;SDS011;5712;48.858;9.206;2022-12-18T07:57:22;36.07;;;17.43;;
11313;SDS011;5712;48.858;9.206;2022-12-18T07:59:48;31.93;;;16.27;;
11313;SDS011;5712;48.858;9.206;2022-12-18T08:02:15;36.37;;;19.23;;
11313;SDS011;5712;48.858;9.206;2022-12-18T08:04:41;36.43;;;17.57;;
11313;SDS011;5712;48.858;9.206;2022-12-18T08:07:08;33.90;;;18.47;;
11313;SDS011;5712;48.858;9.206;2022-12-18T08:09:34;34.67;;;17.67;;
11313;SDS011;5712;48.858;9.206;2022-12-18T08:12:01;36.40;;;18.17;;
11313;SDS011;5712;48.858;9.206;2022-12-18T08:14:29;36.03;;;17.97;;
11313;SDS011;5712;48.858;9.206;2022-12-18T08:16:55;33.83;;;17.87;;
11313;SDS011;5712;48.858;9.206;2022-12-18T08:19:22;37.37;;;18.60;;
11313;SDS011;5712;48.858;9.206;2022-12-18T08:21:49;40.37;;;18.90;;
11313;SDS011;5712;48.858;9.206;2022-12-18T08:24:16;41.43;;;18.17;;
11313;SDS011;5712;48.858;9.206;2022-12-18T08:26:43;37.73;;;18.90;;
11313;SDS011;5712;48.858;9.206;2022-12-18T08:29:09;37.00;;;17.80;;
11313;SDS011;5712;48.858;9.206;2022-12-18T08:31:37;41.40;;;19.07;;
11313;SDS011;5712;48.858;9.206;2022-12-18T08:34:04;36.63;;;18.90;;
11313;SDS011;5712;48.858;9.206;2022-12-18T08:36:30;37.57;;;19.23;;
11313;SDS011;5712;48.858;9.206;2022-12-18T08:38:57;39.17;;;19.60;;
11313;SDS011;5712;48.858;9.206;2022-12-18T08:41:23;35.23;;;19.50;;
11313;SDS011;5712;48.858;9.206;2022-12-18T08:43:50;39.37;;;18.87;;
11313;SDS011;5712;48.858;9.206;2022-12-18T08:46:35;42.50;;;20.67;;
11313;SDS011;5712;48.858;9.206;2022-12-18T08:49:04;34.83;;;18.53;;
11313;SDS011;5712;48.858;9.206;2022-12-18T08:51:31;38.17;;;17.67;;
11313;SDS011;5712;48.858;9.206;2022-12-18T08:53:58;40.80;;;20.53;;
11313;SDS011;5712;48.858;9.206;2022-12-18T08:56:25;39.70;;;18.67;;
11313;SDS011;5712;48.858;9.206;2022-12-18T08:58:52;40.50;;;20.90;;
11313;SDS011;5712;48.858;9.206;2022-12-18T09:01:19;42.23;;;21.23;;
11313;SDS011;5712;48.858;9.206;2022-12-18T09:03:46;36.47;;;18.13;;
11313;SDS011;5712;48.858;9.206;2022-12-18T09:06:14;35.83;;;18.27;;
11313;SDS011;5712;48.858;9.206;2022-12-18T09:08:42;35.43;;;17.43;;
11313;SDS011;5712;48.858;9.206;2022-12-18T09:11:11;39.00;;;19.77;;
11313;SDS011;5712;48.858;9.206;2022-12-18T09:13:39;44.87;;;20.03;;
11313;SDS011;5712;48.858;9.206;2022-12-18T09:16:06;40.60;;;20.40;;
11313;SDS011;5712;48.858;9.206;2022-12-18T09:18:32;36.20;;;19.67;;
11313;SDS011;5712;48.858;9.206;2022-12-18T09:20:59;40.30;;;20.97;;
11313;SDS011;5712;48.858;9.206;2022-12-18T09:23:27;42.40;;;19.93;;
11313;SDS011;5712;48.858;9.206;2022-12-18T09:25:58;38.50;;;19.43;;
11313;SDS011;5712;48.858;9.206;2022-12-18T09:28:24;40.90;;;19.30;;
11313;SDS011;5712;48.858;9.206;2022-12-18T09:30:51;41.70;;;20.17;;
11313;SDS011;5712;48.858;9.206;2022-12-18T09:33:17;40.70;;;20.13;;
11313;SDS011;5712;48.858;9.206;2022-12-18T09:35:44;38.13;;;20.20;;
11313;SDS011;5712;48.858;9.206;2022-12-18T09:38:12;40.40;;;19.73;;
11313;SDS011;5712;48.858;9.206;2022-12-18T09:40:43;45.87;;;21.43;;
11313;SDS011;5712;48.858;9.206;2022-12-18T09:43:13;40.67;;;19.70;;
11313;SDS011;5712;48.858;9.206;2022-12-18T09:45:43;43.57;;;22.40;;
11313;SDS011;5712;48.858;9.206;2022-12-18T09:48:14;39.97;;;19.50;;
11313;SDS011;5712;48.858;9.206;2022-12-18T09:50:45;43.90;;;21.23;;
11313;SDS011;5712;48.858;9.206;2022-12-18T09:53:14;41.13;;;21.27;;
11313;SDS011;5712;48.858;9.206;2022-12-18T09:55:47;41.77;;;20.77;;
11313;SDS011;5712;48.858;9.206;2022-12-18T09:58:15;42.03;;;20.23;;
11313;SDS011;5712;48.858;9.206;2022-12-18T10:00:50;44.67;;;21.03;;
11313;SDS011;5712;48.858;9.206;2022-12-18T10:03:20;46.07;;;21.90;;
11313;SDS011;5712;48.858;9.206;2022-12-18T10:05:49;45.30;;;21.20;;
11313;SDS011;5712;48.858;9.206;2022-12-18T10:08:28;44.63;;;21.33;;
11313;SDS011;5712;48.858;9.206;2022-12-18T10:11:10;46.07;;;22.03;;
11313;SDS011;5712;48.858;9.206;2022-12-18T10:13:48;47.13;;;22.03;;
11313;SDS011;5712;48.858;9.206;2022-12-18T10:16:19;46.30;;;21.77;;
11313;SDS011;5712;48.858;9.206;2022-12-18T10:19:01;45.53;;;22.47;;
11313;SDS011;5712;48.858;9.206;2022-12-18T10:21:42;45.93;;;22.70;;
11313;SDS011;5712;48.858;9.206;2022-12-18T10:24:17;41.60;;;20.83;;
11313;SDS011;5712;48.858;9.206;2022-12-18T10:26:54;38.60;;;21.20;;
11313;SDS011;5712;48.858;9.206;2022-12-18T10:29:30;41.87;;;20.67;;
11313;SDS011;5712;48.858;9.206;2022-12-18T10:31:57;46.90;;;21.67;;
11313;SDS011;5712;48.858;9.206;2022-12-18T10:34:23;42.13;;;22.13;;
11313;SDS011;5712;48.858;9.206;2022-12-18T10:36:50;42.33;;;20.57;;
11313;SDS011;5712;48.858;9.206;2022-12-18T10:39:17;41.73;;;20.57;;
11313;SDS011;5712;48.858;9.206;2022-12-18T10:41:45;42.70;;;21.60;;
11313;SDS011;5712;48.858;9.206;2022-12-18T10:44:17;46.90;;;19.97;;
11313;SDS011;5712;48.858;9.206;2022-12-18T10:46:45;42.17;;;21.93;;
11313;SDS011;5712;48.858;9.206;2022-12-18T10:49:19;41.53;;;20.63;;
11313;SDS011;5712;48.858;9.206;2022-12-18T10:51:49;43.73;;;21.00;;
11313;SDS011;5712;48.858;9.206;2022-12-18T10:54:16;45.10;;;21.30;;
11313;SDS011;5712;48.858;9.206;2022-12-18T10:56:47;40.73;;;19.00;;
11313;SDS011;5712;48.858;9.206;2022-12-18T10:59:14;43.87;;;21.10;;
11313;SDS011;5712;48.858;9.206;2022-12-18T11:01:47;42.33;;;21.20;;
11313;SDS011;5712;48.858;9.206;2022-12-18T11:04:16;41.70;;;20.90;;
11313;SDS011;5712;48.858;9.206;2022-12-18T11:06:52;38.93;;;19.97;;
11313;SDS011;5712;48.858;9.206;2022-12-18T11:09:22;38.03;;;18.83;;
11313;SDS011;5712;48.858;9.206;2022-12-18T11:11:50;37.43;;;18.63;;
11313;SDS011;5712;48.858;9.206;2022-12-18T11:14:20;42.10;;;20.20;;
11313;SDS011;5712;48.858;9.206;2022-12-18T11:16:49;39.73;;;19.37;;
11313;SDS011;5712;48.858;9.206;2022-12-18T11:21:49;36.87;;;18.00;;
11313;SDS011;5712;48.858;9.206;2022-12-18T11:24:19;38.73;;;19.30;;
11313;SDS011;5712;48.858;9.206;2022-12-18T11:26:48;38.77;;;19.63;;
11313;SDS011;5712;48.858;9.206;2022-12-18T11:29:16;39.47;;;18.80;;
11313;SDS011;5712;48.858;9.206;2022-12-18T11:31:45;40.67;;;17.83;;
11313;SDS011;5712;48.858;9.206;2022-12-18T11:34:12;41.60;;;19.37;;
11313;SDS011;5712;48.858;9.206;2022-12-18T11:36:45;38.03;;;18.33;;
11313;SDS011;5712;48.858;9.206;2022-12-18T11:39:15;40.83;;;19.67;;
11313;SDS011;5712;48.858;9.206;2022-12-18T11:41:47;39.83;;;21.60;;
11313;SDS011;5712;48.858;9.206;2022-12-18T11:44:38;42.53;;;18.70;;
11313;SDS011;5712;48.858;9.206;2022-12-18T11:47:15;37.90;;;19.40;;
11313;SDS011;5712;48.858;9.206;2022-12-18T11:49:50;36.77;;;18.73;;
11313;SDS011;5712;48.858;9.206;2022-12-18T11:52:19;36.20;;;17.80;;
11313;SDS011;5712;48.858;9.206;2022-12-18T11:54:50;38.70;;;19.80;;
11313;SDS011;5712;48.858;9.206;2022-12-18T11:57:20;38.83;;;20.33;;
11313;SDS011;5712;48.858;9.206;2022-12-18T12:00:02;39.00;;;19.37;;
11313;SDS011;5712;48.858;9.206;2022-12-18T12:02:41;35.63;;;18.00;;
11313;SDS011;5712;48.858;9.206;2022-12-18T12:05:23;39.40;;;19.30;;
11313;SDS011;5712;48.858;9.206;2022-12-18T12:07:58;39.53;;;20.03;;
11313;SDS011;5712;48.858;9.206;2022-12-18T12:10:39;33.20;;;18.57;;
11313;SDS011;5712;48.858;9.206;2022-12-18T12:13:17;37.33;;;19.37;;
11313;SDS011;5712;48.858;9.206;2022-12-18T12:15:55;35.70;;;19.07;;
11313;SDS011;5712;48.858;9.206;2022-12-18T12:18:33;39.50;;;19.00;;
11313;SDS011;5712;48.858;9.206;2022-12-18T12:21:13;40.67;;;18.80;;
11313;SDS011;5712;48.858;9.206;2022-12-18T12:23:45;38.57;;;18.17;;
11313;SDS011;5712;48.858;9.206;2022-12-18T12:26:20;36.43;;;18.33;;
11313;SDS011;5712;48.858;9.206;2022-12-18T12:29:01;42.73;;;20.13;;
11313;SDS011;5712;48.858;9.206;2022-12-18T12:31:37;38.53;;;19.17;;
11313;SDS011;5712;48.858;9.206;2022-12-18T12:34:18;38.50;;;19.80;;
11313;SDS011;5712;48.858;9.206;2022-12-18T12:36:52;41.40;;;19.97;;
11313;SDS011;5712;48.858;9.206;2022-12-18T12:39:28;38.50;;;20.13;;
11313;SDS011;5712;48.858;9.206;2022-12-18T12:41:59;45.67;;;21.20;;
11313;SDS011;5712;48.858;9.206;2022-12-18T12:44:44;37.43;;;18.03;;
11313;SDS011;5712;48.858;9.206;2022-12-18T12:47:16;39.63;;;20.17;;
11313;SDS011;5712;48.858;9.206;2022-12-18T12:49:48;44.17;;;21.23;;
11313;SDS011;5712;48.858;9.206;2022-12-18T12:52:20;39.47;;;19.57;;
11313;SDS011;5712;48.858;9.206;2022-12-18T12:54:54;38.03;;;19.93;;
11313;SDS011;5712;48.858;9.206;2022-12-18T12:57:23;39.23;;;19.93;;
11313;SDS011;5712;48.858;9.206;2022-12-18T12:59:57;39.63;;;20.10;;
11313;SDS011;5712;48.858;9.206;2022-12-18T13:02:30;39.67;;;20.43;;
11313;SDS011;5712;48.858;9.206;2022-12-18T13:05:03;39.80;;;20.47;;
11313;SDS011;5712;48.858;9.206;2022-12-18T13:07:39;41.10;;;20.63;;
11313;SDS011;5712;48.858;9.206;2022-12-18T13:10:26;39.97;;;21.13;;
11313;SDS011;5712;48.858;9.206;2022-12-18T13:12:58;39.87;;;21.40;;
11313;SDS011;5712;48.858;9.206;2022-12-18T13:15:27;38.13;;;20.20;;
11313;SDS011;5712;48.858;9.206;2022-12-18T13:18:04;43.90;;;21.03;;
11313;SDS011;5712;48.858;9.206;2022-12-18T13:20:49;39.67;;;19.80;;
11313;SDS011;5712;48.858;9.206;2022-12-18T13:23:28;38.80;;;19.63;;
11313;SDS011;5712;48.858;9.206;2022-12-18T13:25:58;35.67;;;19.47;;
11313;SDS011;5712;48.858;9.206;2022-12-18T13:34:34;36.10;;;18.53;;
11313;SDS011;5712;48.858;9.206;2022-12-18T13:40:12;37.87;;;19.20;;
11313;SDS011;5712;48.858;9.206;2022-12-18T13:43:15;35.20;;;18.67;;
11313;SDS011;5712;48.858;9.206;2022-12-18T13:45:58;32.97;;;17.30;;
11313;SDS011;5712;48.858;9.206;2022-12-18T13:48:27;37.13;;;18.90;;
11313;SDS011;5712;48.858;9.206;2022-12-18T13:50:57;34.43;;;18.73;;
11313;SDS011;5712;48.858;9.206;2022-12-18T13:53:27;30.97;;;17.10;;
11313;SDS011;5712;48.858;9.206;2022-12-18T13:56:00;33.23;;;18.03;;
11313;SDS011;5712;48.858;9.206;2022-12-18T13:58:28;29.93;;;16.50;;
11313;SDS011;5712;48.858;9.206;2022-12-18T14:00:54;35.07;;;17.60;;
11313;SDS011;5712;48.858;9.206;2022-12-18T14:03:22;36.37;;;18.10;;
11313;SDS011;5712;48.858;9.206;2022-12-18T14:05:55;35.27;;;17.87;;
11313;SDS011;5712;48.858;9.206;2022-12-18T14:08:24;35.97;;;19.03;;
11313;SDS011;5712;48.858;9.206;2022-12-18T14:10:56;35.30;;;18.10;;
11313;SDS011;5712;48.858;9.206;2022-12-18T14:13:26;34.53;;;17.83;;
11313;SDS011;5712;48.858;9.206;2022-12-18T14:15:55;34.37;;;17.40;;
11313;SDS011;5712;48.858;9.206;2022-12-18T14:18:23;36.00;;;18.57;;
11313;SDS011;5712;48.858;9.206;2022-12-18T14:20:52;35.73;;;19.27;;
11313;SDS011;5712;48.858;9.206;2022-12-18T14:23:25;36.80;;;18.23;;
11313;SDS011;5712;48.858;9.206;2022-12-18T14:25:54;36.97;;;19.10;;
11313;SDS011;5712;48.858;9.206;2022-12-18T14:28:20;36.43;;;18.97;;
11313;SDS011;5712;48.858;9.206;2022-12-18T14:30:49;31.17;;;17.33;;
11313;SDS011;5712;48.858;9.206;2022-12-18T14:33:17;33.90;;;17.20;;
11313;SDS011;5712;48.858;9.206;2022-12-18T14:35:52;33.20;;;17.33;;
11313;SDS011;5712;48.858;9.206;2022-12-18T14:38:22;32.93;;;18.23;;
11313;SDS011;5712;48.858;9.206;2022-12-18T14:40:54;35.00;;;18.60;;
11313;SDS011;5712;48.858;9.206;2022-12-18T14:43:23;37.57;;;19.17;;
11313;SDS011;5712;48.858;9.206;2022-12-18T14:45:51;35.77;;;18.40;;
11313;SDS011;5712;48.858;9.206;2022-12-18T14:48:19;34.93;;;18.43;;
11313;SDS011;5712;48.858;9.206;2022-12-18T14:50:54;40.50;;;20.80;;
11313;SDS011;5712;48.858;9.206;2022-12-18T14:53:22;35.00;;;18.33;;
11313;SDS011;5712;48.858;9.206;2022-12-18T14:55:53;36.57;;;19.07;;
11313;SDS011;5712;48.858;9.206;2022-12-18T14:58:20;34.83;;;18.77;;
11313;SDS011;5712;48.858;9.206;2022-12-18T15:00:48;42.73;;;20.63;;
11313;SDS011;5712;48.858;9.206;2022-12-18T15:03:17;42.37;;;21.27;;